createdAt,value
2023-04-18T00:03:49.113Z,33.38
2023-04-18T00:08:50.016Z,29.15
2023-04-18T00:13:51.928Z,34.00
2023-04-18T00:18:53.437Z,38.15
2023-04-18T00:23:54.064Z,35.58
2023-04-18T00:28:55.987Z,36.10
2023-04-18T00:33:56.570Z,38.40
2023-04-18T00:38:57.732Z,37.50
2023-04-18T00:43:59.620Z,36.75
2023-04-18T00:49:00.308Z,40.45
2023-04-18T00:54:01.076Z,38.22
2023-04-18T00:59:03.811Z,42.70
2023-04-18T01:04:04.817Z,42.50
2023-04-18T01:09:06.619Z,39.03
2023-04-18T01:14:09.282Z,35.53
2023-04-18T01:19:09.890Z,38.70
2023-04-18T01:24:13.716Z,40.45
2023-04-18T01:29:15.686Z,46.58
2023-04-18T01:34:17.751Z,56.25
2023-04-18T01:39:19.702Z,42.72
2023-04-18T01:44:20.415Z,47.63
2023-04-18T01:49:21.029Z,49.25
2023-04-18T01:54:24.712Z,53.35
2023-04-18T01:59:26.504Z,48.78
2023-04-18T02:04:27.154Z,50.13
2023-04-18T02:09:29.162Z,51.30
2023-04-18T02:14:32.774Z,49.85
2023-04-18T02:19:34.501Z,55.22
2023-04-18T02:24:36.378Z,54.78
2023-04-18T02:29:36.953Z,54.40
2023-04-18T02:34:38.141Z,50.25
2023-04-18T02:39:40.069Z,51.33
2023-04-18T02:44:40.697Z,50.35
2023-04-18T02:49:41.292Z,49.40
2023-04-18T02:54:43.219Z,47.28
2023-04-18T02:59:51.754Z,47.70
2023-04-18T03:05:10.806Z,46.55
2023-04-18T03:10:15.189Z,48.83
2023-04-18T03:15:16.266Z,42.55
2023-04-18T03:20:17.589Z,45.05
2023-04-18T03:25:19.648Z,39.42
2023-04-18T03:30:25.262Z,40.53
2023-04-18T03:35:28.380Z,39.28
2023-04-18T03:40:30.973Z,40.28
2023-04-18T03:45:38.395Z,41.53
2023-04-18T03:50:39.237Z,40.95
2023-04-18T03:55:44.744Z,50.85
2023-04-18T04:00:48.298Z,48.33
2023-04-18T04:05:49.555Z,49.58
2023-04-18T04:10:51.677Z,53.35
2023-04-18T04:15:53.118Z,53.75
2023-04-18T04:20:53.886Z,48.08
2023-04-18T04:26:09.374Z,52.10
2023-04-18T04:31:22.211Z,55.72
2023-04-18T04:36:27.207Z,53.10
2023-04-18T04:41:31.651Z,49.60
2023-04-18T04:46:33.884Z,53.35
2023-04-18T04:51:38.506Z,55.78
2023-04-18T04:56:41.329Z,52.65
2023-04-18T05:01:42.056Z,54.03
2023-04-18T05:06:42.719Z,53.55
2023-04-18T05:11:44.622Z,48.92
2023-04-18T05:16:45.393Z,56.50
2023-04-18T05:21:46.020Z,50.10
2023-04-18T05:26:47.962Z,53.40
2023-04-18T05:31:48.542Z,48.53
2023-04-18T05:36:49.129Z,56.97
2023-04-18T05:41:51.110Z,50.75
2023-04-18T05:46:52.247Z,48.03
2023-04-18T05:51:53.002Z,47.33
2023-04-18T05:56:56.987Z,51.88
2023-04-18T06:01:57.851Z,44.25
2023-04-18T06:06:58.492Z,44.00
2023-04-18T06:12:01.481Z,38.15
2023-04-18T06:17:02.112Z,40.63
2023-04-18T06:22:02.783Z,51.53
2023-04-18T06:27:05.901Z,41.85
2023-04-18T06:32:07.119Z,43.45
2023-04-18T06:37:07.811Z,52.20
2023-04-18T06:42:09.740Z,44.00
2023-04-18T06:47:18.372Z,46.30
2023-04-18T06:52:19.005Z,47.20
2023-04-18T06:57:21.200Z,43.45
2023-04-18T07:02:21.907Z,46.63
2023-04-18T07:07:22.596Z,43.83
2023-04-18T07:12:24.542Z,41.05
2023-04-18T07:17:25.374Z,45.30
2023-04-18T07:22:26.126Z,42.15
2023-04-18T07:27:28.113Z,39.25
2023-04-18T07:32:28.727Z,48.88
2023-04-18T07:37:32.424Z,42.13
2023-04-18T07:42:34.337Z,44.85
2023-04-18T07:47:34.928Z,38.30
2023-04-18T07:52:37.361Z,39.58
2023-04-18T07:57:40.127Z,41.45
2023-04-18T08:02:41.733Z,37.20
2023-04-18T08:07:42.526Z,39.40
2023-04-18T08:12:44.825Z,37.78
2023-04-18T08:17:48.908Z,38.83
2023-04-18T08:23:04.855Z,37.42
2023-04-18T08:28:09.922Z,36.58
2023-04-18T08:33:10.713Z,40.70
2023-04-18T08:38:11.335Z,34.30
2023-04-18T08:43:15.094Z,33.88
2023-04-18T08:48:16.283Z,38.03
2023-04-18T08:53:18.485Z,37.53
2023-04-18T08:58:23.662Z,40.20
2023-04-18T09:03:39.498Z,36.78
2023-04-18T09:08:42.526Z,35.22
2023-04-18T09:13:47.145Z,30.00
2023-04-18T09:19:10.386Z,40.42
2023-04-18T09:24:21.071Z,38.53
2023-04-18T09:29:24.065Z,37.40
2023-04-18T09:34:26.355Z,41.08
2023-04-18T09:39:28.461Z,34.47
2023-04-18T09:44:30.360Z,42.08
2023-04-18T09:49:31.092Z,41.47
2023-04-18T09:54:34.016Z,44.78
2023-04-18T09:59:42.540Z,44.88
2023-04-18T10:04:44.845Z,41.60
2023-04-18T10:09:47.952Z,42.15
2023-04-18T10:14:50.390Z,47.72
2023-04-18T10:20:05.620Z,43.42
2023-04-18T10:25:07.359Z,48.33
2023-04-18T10:30:10.985Z,38.85
2023-04-18T10:35:11.842Z,32.70
2023-04-18T10:40:12.853Z,39.83
2023-04-18T10:45:22.200Z,36.75
2023-04-18T10:50:23.078Z,37.97
2023-04-18T10:55:27.453Z,40.92
2023-04-18T11:00:30.715Z,43.00
2023-04-18T11:05:31.466Z,53.03
2023-04-18T11:10:32.060Z,45.00
2023-04-18T11:15:40.205Z,44.53
2023-04-18T11:20:47.626Z,48.90
2023-04-18T11:25:51.379Z,45.80
2023-04-18T11:30:53.316Z,40.47
2023-04-18T11:35:58.354Z,43.45
2023-04-18T11:40:59.012Z,43.65
2023-04-18T11:46:01.802Z,45.08
2023-04-18T11:51:02.539Z,47.40
2023-04-18T11:56:03.932Z,40.50
2023-04-18T12:01:18.842Z,45.35
2023-04-18T12:06:19.656Z,46.47
2023-04-18T12:11:21.345Z,46.20
2023-04-18T12:16:28.205Z,44.05
2023-04-18T12:21:29.544Z,42.78
2023-04-18T12:26:30.207Z,41.25
2023-04-18T12:31:33.366Z,44.63
2023-04-18T12:36:34.042Z,53.70
2023-04-18T12:41:34.649Z,37.90
2023-04-18T12:46:36.676Z,46.53
2023-04-18T12:51:37.279Z,43.08
2023-04-18T12:56:37.922Z,41.47
2023-04-18T13:01:39.804Z,44.35
2023-04-18T13:06:40.454Z,35.67
2023-04-18T13:11:41.126Z,37.53
2023-04-18T13:16:44.017Z,31.60
2023-04-18T13:21:46.447Z,37.47
2023-04-18T13:26:47.913Z,39.92
2023-04-18T13:31:49.828Z,37.60
2023-04-18T13:36:50.499Z,34.53
2023-04-18T13:41:51.426Z,38.88
2023-04-18T13:46:53.997Z,36.33
2023-04-18T13:51:57.202Z,29.65
2023-04-18T13:56:59.678Z,25.65
2023-04-18T14:02:01.876Z,30.73
2023-04-18T14:07:03.765Z,29.60
2023-04-18T14:12:04.690Z,35.85
2023-04-18T14:17:06.704Z,26.08
2023-04-18T14:22:07.837Z,29.35
2023-04-18T14:27:08.438Z,25.80
2023-04-18T14:32:10.577Z,28.90
2023-04-18T14:37:13.856Z,26.60
2023-04-18T14:42:17.053Z,23.15
2023-04-18T14:47:18.974Z,25.77
2023-04-18T14:52:19.556Z,23.75
2023-04-18T14:57:20.117Z,24.02
2023-04-18T15:02:22.441Z,23.88
2023-04-18T15:07:23.114Z,22.65
2023-04-18T15:12:23.717Z,20.75
2023-04-18T15:17:25.857Z,23.60
2023-04-18T15:22:26.429Z,22.27
2023-04-18T15:27:27.042Z,24.40
2023-04-18T15:32:28.986Z,25.17
2023-04-18T15:37:29.591Z,24.00
2023-04-18T15:42:30.996Z,23.70
2023-04-18T15:47:34.209Z,22.85
2023-04-18T15:52:34.906Z,28.02
2023-04-18T15:57:35.623Z,32.05
2023-04-18T16:02:37.592Z,26.60
2023-04-18T16:07:38.519Z,32.28
2023-04-18T16:12:39.885Z,28.70
2023-04-18T16:17:42.151Z,32.10
2023-04-18T16:22:42.768Z,33.65
2023-04-18T16:27:44.316Z,32.65
2023-04-18T16:32:46.325Z,33.17
2023-04-18T16:37:47.241Z,39.95
2023-04-18T16:42:48.013Z,32.83
2023-04-18T16:47:49.982Z,30.25
2023-04-18T16:52:50.651Z,33.15
2023-04-18T16:57:51.576Z,34.90
2023-04-18T17:02:55.661Z,36.88
2023-04-18T17:07:56.352Z,29.98
2023-04-18T17:12:57.001Z,31.65
2023-04-18T17:18:01.048Z,30.52
2023-04-18T17:23:01.708Z,28.92
2023-04-18T17:28:03.379Z,29.65
2023-04-18T17:33:05.579Z,29.27
2023-04-18T17:38:06.344Z,30.50
2023-04-18T17:43:06.991Z,27.65
2023-04-18T17:48:09.055Z,34.78
2023-04-18T17:53:09.679Z,33.83
2023-04-18T17:58:10.452Z,35.72
2023-04-18T18:03:14.478Z,29.83
2023-04-18T18:08:15.330Z,29.23
2023-04-18T18:13:16.052Z,36.03
2023-04-18T18:18:18.261Z,30.08
2023-04-18T18:23:18.915Z,26.15
2023-04-18T18:28:19.566Z,30.88
2023-04-18T18:33:21.556Z,26.90
2023-04-18T18:38:22.268Z,31.50
2023-04-18T18:43:26.169Z,32.90
2023-04-18T18:48:29.399Z,36.35
2023-04-18T18:53:30.293Z,30.95
2023-04-18T18:58:31.180Z,30.25
2023-04-18T19:03:34.701Z,35.45
2023-04-18T19:08:36.097Z,29.70
2023-04-18T19:13:36.685Z,30.40
2023-04-18T19:18:38.622Z,35.40
2023-04-18T19:23:39.271Z,30.80
2023-04-18T19:28:39.941Z,32.50
2023-04-18T19:33:42.053Z,37.03
2023-04-18T19:38:42.785Z,34.40
2023-04-18T19:43:43.410Z,38.78
2023-04-18T19:48:45.308Z,33.88
2023-04-18T19:53:45.886Z,36.28
2023-04-18T19:58:46.791Z,35.67
2023-04-18T20:03:49.082Z,37.45
2023-04-18T20:08:49.896Z,32.53
2023-04-18T20:13:52.135Z,33.50
2023-04-18T20:18:55.197Z,30.75
2023-04-18T20:23:56.623Z,28.25
2023-04-18T20:28:57.254Z,30.92
2023-04-18T20:33:59.228Z,33.60
2023-04-18T20:39:02.212Z,32.63
2023-04-18T20:44:05.167Z,31.15
2023-04-18T20:49:07.691Z,33.75
2023-04-18T20:54:08.282Z,32.38
2023-04-18T20:59:09.053Z,33.88
2023-04-18T21:04:11.125Z,28.25
2023-04-18T21:09:11.909Z,33.28
2023-04-18T21:14:12.820Z,36.88
2023-04-18T21:19:15.159Z,34.00
2023-04-18T21:24:15.999Z,33.20
2023-04-18T21:29:16.706Z,33.10
2023-04-18T21:34:18.646Z,36.97
2023-04-18T21:39:19.286Z,32.58
2023-04-18T21:44:19.912Z,32.88
2023-04-18T21:49:21.794Z,33.25
2023-04-18T21:54:22.390Z,37.45
2023-04-18T21:59:23.007Z,32.72
2023-04-18T22:04:26.328Z,37.80
2023-04-18T22:09:27.404Z,32.60
2023-04-18T22:14:28.152Z,33.80
2023-04-18T22:19:31.313Z,33.67
2023-04-18T22:24:31.909Z,33.97
2023-04-18T22:29:32.487Z,34.78
2023-04-18T22:34:34.427Z,33.75
2023-04-18T22:39:35.203Z,31.05
2023-04-18T22:44:35.853Z,38.03
2023-04-18T22:49:38.140Z,32.92
2023-04-18T22:54:39.994Z,33.97
2023-04-18T22:59:40.745Z,34.85
2023-04-18T23:04:45.336Z,33.90
2023-04-18T23:09:46.266Z,28.80
2023-04-18T23:14:46.862Z,36.17
2023-04-18T23:19:48.745Z,34.33
2023-04-18T23:24:49.308Z,33.78
2023-04-18T23:29:50.477Z,33.72
2023-04-18T23:34:52.372Z,29.83
2023-04-18T23:39:52.942Z,29.40
2023-04-18T23:44:54.486Z,29.10
2023-04-18T23:49:56.573Z,23.45
2023-04-18T23:55:00.221Z,23.90
